Tiempo atmosférico en la estación meteorológica de Villablino, León (958 m.)



Fecha
DESCASC
Temp. máxima en grados centígrados (hora)
DESCASC
Temp. mínima en grados centígrados (hora)
DESCASC
Temp. media en grados centígrados
DESCASC
Racha de viento máxima en m/sg (hora)
DESCASC
Velocidad máxima media en intervalos de 10 minutos(hora)
DESCASC
Precipitaciones diarias en mm
DESCASC
Precipitaciones de 00:00 a 06:00 en mm
DESCASC
Precipitaciones de 06:00 a 12:00 en mm
DESCASC
Precipitaciones de 12:00 a 18:00 en mm
DESCASC
Precipitaciones de 18:00 a 24:00 en mm
DESCASC
14-12-2019 9.2 (17:30) 6.9 (01:10) 8 16.67 (16:30) 8.89 (16:20) 1.3 0 0 0.4 0.9
13-12-2019 12.2 (14:30) 7.4 (23:30) 9.8 14.44 (05:30) 5.83 (23:59) 5.2 3.4 1.8 0 0
12-12-2019 10 (22:10) 3.4 (11:40) 6.7 14.17 (14:00) 8.61 (14:00) 67 6 15.8 23.4 21.8
11-12-2019 7.4 (02:10) 2.3 (00:00) 4.9 9.72 (21:50) 4.72 (21:50) 8 4.8 0.8 0.6 1.8
10-12-2019 6 (16:00) -3.5 (-00:0) 1.3 2.22 (01:50) 1.39 (01:50) 0 0 0 0 0
09-12-2019 10.9 (13:40) -2.2 (-00:0) 4.3 9.72 (10:50) 5 (14:50) 0 0 0 0 0
08-12-2019 13.4 (16:00) -0.6 (-00:0) 6.4 4.17 (16:30) 1.94 (16:30) 5.4 0 4 1.2 0.2
07-12-2019 16.2 (15:30) -1.3 (-00:0) 7.5 6.94 (16:30) 4.72 (15:50) 0 0 0 0 0
06-12-2019 12.4 (16:20) -1.1 (-00:0) 5.6 2.78 (01:30) 1.67 (06:10) 0 0 0 0 0
05-12-2019 13.3 (14:40) -1.9 (-00:0) 5.7 6.67 (15:00) 3.33 (17:00) 0 0 0 0 0
04-12-2019 12.1 (15:40) -3.7 (-00:0) 4.2 3.33 (16:40) 2.22 (19:20) 0 0 0 0 0
03-12-2019 10.7 (15:30) -3.6 (-00:0) 3.5 3.89 (02:30) 2.22 (02:30) 0 0 0 0 0
02-12-2019 8.5 (15:30) -0.6 (-00:0) 3.9 10.28 (09:10) 5.28 (14:20) 0 0 0 0 0
01-12-2019 8 (11:20) 3.4 (00:00) 5.7 9.72 (21:50) 5.56 (21:40) 0.6 0.2 0 0 0.4
30-11-2019 10.8 (07:40) 4.5 (00:00) 7.7 14.17 (13:20) 8.06 (13:50) 16 7 8.6 0 0.4
29-11-2019 -- (--) -- (--) -- -- (--) -- (--) -- 0 0 0 --
28-11-2019 10.6 (12:20) 6.5 (00:00) 8.6 12.78 (13:10) 6.94 (14:30) 15.6 1.2 2.6 8.6 3.2
27-11-2019 9.3 (11:10) 5.8 (00:00) 7.6 18.06 (01:10) 8.89 (01:20) 15 2.8 0 6.4 5.8
26-11-2019 12.6 (14:00) 4.3 (00:00) 8.5 33.06 (18:30) 12.5 (16:00) 10.8 0.4 0.2 4.8 5.4
25-11-2019 11 (14:10) 4.2 (00:00) 7.6 11.11 (17:00) 6.11 (03:30) 0.4 0.4 0 0 0
24-11-2019 7.2 (13:40) 1.3 (00:00) 4.2 8.89 (14:10) 5.83 (14:20) 8.6 5.4 0.8 0 2.4
23-11-2019 -- (--) -- (--) -- -- (--) -- (--) -- 8.6 8.4 -- 6.8
22-11-2019 -- (--) -- (--) -- -- (--) -- (--) -- 0.6 -- 6.8 7
21-11-2019 7.1 (15:20) 1.1 (00:00) 4.1 10.28 (03:00) 6.11 (15:40) 5.4 3.8 1.2 0 0.4
20-11-2019 5.9 (15:10) 1.2 (00:00) 3.6 -- (--) -- (--) -- -- 0 0.4 0.4
19-11-2019 8.4 (13:40) -3.1 (-00:0) 2.6 3.33 (08:30) 2.22 (07:00) 0 0 0 0 0
18-11-2019 9.9 (14:00) -0.5 (-00:0) 4.7 7.78 (02:30) 3.89 (00:10) 1.4 1.4 0 0 0
17-11-2019 6.6 (13:50) 1 (00:00) 3.8 8.61 (22:50) 5 (23:00) 12.2 0.4 5.2 2.8 3.8
16-11-2019 7 (14:50) 0.1 (00:00) 3.6 6.67 (12:40) 3.33 (18:20) 15.8 0.8 4.4 10.4 0.2

Gráficas

Temp. máximas Temp. mínimas Temp. medias Precipitaciones Rachas de viento máximas Velocidades máximas media en intervalos de 10 minutos

Datos horarios

Fecha y hora oficial Temperatura (ºC) Velocidad del viento (km/h) Dirección del viento Racha (km/h) Dirección de racha Precipitación (mm) Presión (hPa) Tendencia (hPa) Humedad (%)
2019-12-15 23:00:00 -- -- -- -- -- -- -- -- --
2019-12-15 22:00:00 -- -- -- -- -- -- -- -- --
2019-12-15 21:00:00 -- -- -- -- -- -- -- -- --
2019-12-15 20:00:00 -- -- -- -- -- -- -- -- --
2019-12-15 19:00:00 -- -- -- -- -- -- -- -- --
2019-12-15 18:00:00 7.2 21 Sur 49 Sur 2.2 -- -- 87
2019-12-15 17:00:00 7.4 10 Este 31 Sur 1.2 -- -- 93
2019-12-15 16:00:00 7.2 13 Sur 22 Sur 2 -- -- 93
2019-12-15 15:00:00 7.3 15 Sudoeste 38 Sur 0.6 -- -- 91
2019-12-15 14:00:00 7.8 10 Sudoeste 41 Sur 0.6 -- -- 85
2019-12-15 13:00:00 7.6 22 Sudoeste 55 Sudoeste 1.4 -- -- 83
2019-12-15 12:00:00 7.8 28 Sudoeste 65 Sur 1.4 -- -- 84
2019-12-15 11:00:00 8.3 27 Sudoeste 55 Sur 1.6 -- -- 84
2019-12-15 10:00:00 7.8 28 Sur 58 Sudoeste 1.8 -- -- 87
2019-12-15 09:00:00 8.1 31 Sudoeste 73 Sur 1.4 -- -- 85
2019-12-15 08:00:00 7.8 29 Sudoeste 57 Sur 1.2 -- -- 88
2019-12-15 07:00:00 7.8 26 Sudoeste 64 Sudoeste 0.4 -- -- 87
2019-12-15 06:00:00 8 33 Sudoeste 65 Sudoeste 0.8 -- -- 86
2019-12-15 05:00:00 8.1 29 Sudoeste 62 Sur 0.2 -- -- 85
2019-12-15 04:00:00 8.5 25 Sudoeste 63 Sur 0.4 -- -- 83
2019-12-15 03:00:00 8.8 19 Sudoeste 75 Sur 0.2 -- -- 80
2019-12-15 02:00:00 9.1 23 Sudoeste 60 Sur 0 -- -- 76
2019-12-15 01:00:00 8.3 28 Sudoeste 54 Sudoeste 0.6 -- -- 84
2019-12-15 00:00:00 8.1 23 Sudoeste 49 Sudoeste 0.4 -- -- 88
2019-12-14 23:00:00 8.4 17 Sudoeste 52 Sur 0.2 -- -- 85
2019-12-14 22:00:00 7.9 17 Sudoeste 50 Sur -- -- -- 89
2019-12-14 21:00:00 8.4 16 Sudoeste 41 Sur 0 -- -- 85
2019-12-14 20:00:00 8.4 9 Sur 43 Sur 0 -- -- 85
2019-12-14 19:00:00 8.5 18 Sur 40 Sur 0 -- -- 84
2019-12-14 18:00:00 9.2 13 Sudoeste 43 Sudoeste 0 -- -- 77
2019-12-14 17:00:00 8.8 25 Sudoeste 60 Sudoeste 0.2 -- -- 79
2019-12-14 16:00:00 8.4 22 Sudoeste 50 Sudoeste 0 -- -- 87
2019-12-14 15:00:00 8.8 19 Sudoeste 43 Sudoeste 0 -- -- 84
2019-12-14 14:00:00 8 4 Sur 25 Sudoeste 0.2 -- -- 88
2019-12-14 13:00:00 7.7 5 Norte 37 Sur 0 -- -- 87
2019-12-14 12:00:00 8.7 22 Sur 49 Sur 0 -- -- 78
2019-12-14 11:00:00 8.6 14 Sur 36 Sur 0 -- -- 76
2019-12-14 10:00:00 8 10 Sudoeste 28 Sudoeste 0 -- -- 80
2019-12-14 09:00:00 7.8 13 Sur 28 Sur 0 -- -- 82
2019-12-14 08:00:00 7.7 11 Sur 38 Sur 0 -- -- 83
2019-12-14 07:00:00 8.1 17 Sudoeste 33 Sur 0 -- -- 78
2019-12-14 06:00:00 8.2 12 Oeste 31 Sur 0 -- -- 76
2019-12-14 05:00:00 8.1 8 Sudoeste 30 Sudoeste 0 -- -- 78
2019-12-14 04:00:00 7.7 10 Sudoeste 31 Sudoeste 0 -- -- 81
2019-12-14 03:00:00 7.9 9 Sudoeste 24 Sudoeste 0 -- -- 79
2019-12-14 02:00:00 7.4 9 Sudoeste 22 Oeste 0 -- -- 81
2019-12-14 01:00:00 7.5 13 Sudoeste 34 Sudoeste 0 -- -- 79
2019-12-14 00:00:00 7.9 21 Sudoeste 41 Sur 0 -- -- 79
2019-12-13 23:00:00 8.1 13 Sudoeste 27 Sudoeste 0 -- -- 79
2019-12-13 22:00:00 8.1 4 Noroeste 38 Noroeste 0 -- -- 74
2019-12-13 21:00:00 8.9 12 Noroeste 30 Noroeste 0 -- -- 70
2019-12-13 20:00:00 8.9 11 Noroeste 27 Noroeste 0 -- -- 73
2019-12-13 19:00:00 9 5 Noroeste 19 Norte 0 -- -- 79
2019-12-13 18:00:00 10.4 6 Norte 22 Norte 0 -- -- 73
2019-12-13 17:00:00 10.6 5 Este 22 Noroeste 0 -- -- 80
2019-12-13 16:00:00 11.5 8 Sudoeste 35 Sur 0 -- -- 74
2019-12-13 15:00:00 11.8 9 Este 40 Sudoeste 0 -- -- 73
2019-12-13 14:00:00 11.6 18 Sudoeste 45 Sudoeste 0 -- -- 75
2019-12-13 13:00:00 11.7 9 Nordeste 31 Sur 0 -- -- 75
2019-12-13 12:00:00 11.6 11 Nordeste 32 Norte 0 -- -- 75
2019-12-13 11:00:00 11.2 8 Nordeste 35 Sur 0 -- -- 78
2019-12-13 10:00:00 10.7 12 Noroeste 39 Sur 0.2 -- -- 80
2019-12-13 09:00:00 10.1 10 Oeste 32 Sur 0.4 -- -- 83
2019-12-13 08:00:00 9.3 10 Noroeste 37 Oeste 1 -- -- 89
2019-12-13 07:00:00 10 13 Sudoeste 42 Sur 0.2 -- -- 83
2019-12-13 06:00:00 10.4 10 Sur 52 Sur 0 -- -- 79
2019-12-13 05:00:00 10.9 11 Norte 31 Norte 0 -- -- 76
2019-12-13 04:00:00 10.8 10 Noroeste 37 Sur 0 -- -- 80
2019-12-13 03:00:00 10.6 19 Sur 37 Sur 0.2 -- -- 80
2019-12-13 02:00:00 10.3 8 Sudoeste 33 Sur 0.4 -- -- 85
2019-12-13 01:00:00 9.8 6 Este 23 Sur 2.8 -- -- 90
2019-12-13 00:00:00 9.5 11 Sudoeste 30 Sudoeste 4.4 -- -- 92
2019-12-12 23:00:00 9.7 5 Noroeste 21 Sur 3.8 -- -- 89
2019-12-12 22:00:00 9.9 9 Oeste 27 Sur 4 -- -- 87
2019-12-12 21:00:00 9.3 7 Sudoeste 21 Sudoeste 3.2 -- -- 93
2019-12-12 20:00:00 8.7 8 Noroeste 19 Oeste 3.2 -- -- 95
2019-12-12 19:00:00 9.2 6 Noroeste 26 Sur 3.2 -- -- 91
2019-12-12 18:00:00 8.5 7 Noroeste 26 Sudoeste 3.8 -- -- 93
2019-12-12 17:00:00 8 8 Noroeste 27 Noroeste 4 -- -- 96
2019-12-12 16:00:00 7.6 13 Sudoeste 38 Sudoeste 4.6 -- -- 93
2019-12-12 15:00:00 6.6 22 Sudoeste 49 Sur 3.6 -- -- 94
2019-12-12 14:00:00 5.9 31 Sur 51 Sur 4.4 -- -- 91
2019-12-12 13:00:00 4.4 7 Noroeste 47 Sur 3 -- -- 92
2019-12-12 12:00:00 4.2 12 Sur 38 Sur 4 -- -- 93
2019-12-12 11:00:00 4.1 12 Sur 31 Sur 2.6 -- -- 90
2019-12-12 10:00:00 4.2 11 Sudoeste 30 Sur 3 -- -- 91
2019-12-12 09:00:00 3.8 5 Oeste 21 Sudoeste 2.2 -- -- 95
2019-12-12 08:00:00 4.2 6 Oeste 21 Sur 2 -- -- 91
2019-12-12 07:00:00 4.2 8 Oeste 29 Sudoeste 2 -- -- 92
2019-12-12 06:00:00 4 7 Noroeste 31 Sudoeste 1.6 -- -- 93
2019-12-12 05:00:00 4.4 15 Sudoeste 36 Sur 1 -- -- 91
2019-12-12 04:00:00 4.1 17 Sudoeste 38 Sur 1 -- -- 91
2019-12-12 03:00:00 4 10 Sudoeste 24 Sur 0.8 -- -- 92
2019-12-12 02:00:00 4 12 Sudoeste 25 Oeste 1 -- -- 92
2019-12-12 01:00:00 4 18 Sudoeste 33 Sur 0.6 -- -- 91
2019-12-12 00:00:00 4.2 6 Noroeste 17 Sudoeste 0.6 -- -- 89
2019-12-11 23:00:00 4.9 6 Norte 18 Sudeste 0 -- -- 79
2019-12-11 22:00:00 5.5 9 Oeste 35 Sur 0.2 -- -- 74
2019-12-11 21:00:00 4.4 12 Oeste 22 Sudoeste 0 -- -- 86
2019-12-11 20:00:00 4.4 7 Sudoeste 21 Sudeste 0.6 -- -- 87
2019-12-11 19:00:00 3.8 8 Sudoeste 15 Sudoeste 0.4 -- -- 92
2019-12-11 18:00:00 3.7 11 Sudoeste 18 Sudoeste 0.6 -- -- 92
2019-12-11 17:00:00 3.9 8 Sudoeste 19 Sudoeste 0 -- -- 88
2019-12-11 16:00:00 4.5 6 Oeste 24 Sur 0 -- -- 82
2019-12-11 15:00:00 4.5 4 Norte 16 Sur 0 -- -- 78
2019-12-11 14:00:00 5.1 5 Nordeste 25 Noroeste 0 -- -- 72
2019-12-11 13:00:00 4.6 12 Sur 33 Norte 0 -- -- 71
2019-12-11 12:00:00 5.3 9 Sudoeste 21 Sudoeste 0 -- -- 68
2019-12-11 11:00:00 3.5 6 Norte 20 Norte 0 -- -- 77
2019-12-11 10:00:00 3.2 4 Noroeste 21 Sur 0.2 -- -- 86
2019-12-11 09:00:00 3.2 7 Nordeste 20 Noroeste 0.2 -- -- 88
2019-12-11 08:00:00 3.6 8 Norte 17 Norte 0.2 -- -- 89
2019-12-11 07:00:00 3.9 8 Norte 15 Norte 0.2 -- -- 90
2019-12-11 06:00:00 5 7 Norte 26 Noroeste 1.6 -- -- 85
2019-12-11 05:00:00 5 4 Nordeste 10 Norte 1.2 -- -- 98
2019-12-11 04:00:00 5.6 9 Sudoeste 24 Sudoeste 1.4 -- -- 95
2019-12-11 03:00:00 5.8 10 Sudoeste 19 Sudoeste 0.6 -- -- 91
2019-12-11 02:00:00 7 2 Oeste 14 Sur 0 -- -- 80
2019-12-11 01:00:00 2.5 2 Norte 6 Sudeste 0 -- -- 93
2019-12-11 00:00:00 2.3 3 Sur 8 Sudeste 0 -- -- 95
2019-12-10 23:00:00 2.7 0 Calma 6 Norte 0 -- -- 93
2019-12-10 22:00:00 2.8 0 Calma 5 Norte 0 -- -- 92
2019-12-10 21:00:00 2.5 4 Nordeste 6 Norte 0 -- -- 92
2019-12-10 20:00:00 2.2 2 Sudoeste 7 Noroeste 0 -- -- 92
2019-12-10 19:00:00 2.6 2 Nordeste 5 Sur 0 -- -- 89
2019-12-10 18:00:00 4.6 3 Sur 6 Sur 0 -- -- 81
2019-12-10 17:00:00 5.3 0 Calma 4 Sur 0 -- -- 73
2019-12-10 16:00:00 6 0 Calma 4 Sur 0 -- -- 66
2019-12-10 15:00:00 5.2 0 Calma 4 Sur 0 -- -- 70
2019-12-10 14:00:00 4.8 0 Calma 5 Sudeste 0 -- -- 70
2019-12-10 13:00:00 3.5 0 Calma 5 Nordeste 0 -- -- 76
2019-12-10 12:00:00 2.4 2 Este 5 Norte 0 -- -- 81
2019-12-10 11:00:00 0.2 2 Norte 5 Sudeste 0 -- -- 92
2019-12-10 10:00:00 -1.2 4 Nordeste 6 Norte 0 -- -- 98
2019-12-10 09:00:00 -2.4 0 Calma 4 Nordeste 0 -- -- 99
2019-12-10 08:00:00 -2.4 2 Norte 7 Norte 0 -- -- 99
2019-12-10 07:00:00 -3.3 0 Calma 8 Noroeste 0 -- -- 99
2019-12-10 06:00:00 -3.5 3 Norte 5 Norte 0 -- -- 99
2019-12-10 05:00:00 -3.2 3 Norte 6 Norte 0 -- -- 99
2019-12-10 04:00:00 -2.9 3 Nordeste 5 Norte 0 -- -- 100
2019-12-10 03:00:00 -2.5 4 Norte 6 Norte 0 -- -- 99
2019-12-10 02:00:00 -2 4 Nordeste 8 Norte 0 -- -- 99
2019-12-10 01:00:00 -1.8 2 Nordeste 7 Norte 0 -- -- 99
2019-12-10 00:00:00 -1.7 2 Norte 6 Nordeste 0 -- -- 98
2019-12-09 23:00:00 -0.9 4 Norte 8 Nordeste 0 -- -- 98
2019-12-09 22:00:00 -0.7 4 Noroeste 6 Noroeste 0 -- -- 96
2019-12-09 21:00:00 0.1 4 Norte 9 Nordeste 0 -- -- 94
2019-12-09 20:00:00 1.8 4 Norte 9 Norte 0 -- -- 88
2019-12-09 19:00:00 3.1 5 Norte 7 Norte 0 -- -- 84
2019-12-09 18:00:00 4.5 2 Norte 6 Nordeste 0 -- -- 78
2019-12-09 17:00:00 8 6 Nordeste 19 Norte 0 -- -- 59
2019-12-09 16:00:00 9.9 7 Norte 23 Noroeste 0 -- -- 54
2019-12-09 15:00:00 8.7 16 Noroeste 29 Noroeste 0 -- -- 63
2019-12-09 14:00:00 9.3 9 Norte 20 Norte 0 -- -- 60
2019-12-09 13:00:00 8.9 3 Sur 16 Nordeste 0 -- -- 67
2019-12-09 12:00:00 7.5 12 Norte 32 Norte 0 -- -- 72
2019-12-09 11:00:00 6.2 14 Norte 35 Noroeste 0 -- -- 75
2019-12-09 10:00:00 -0.1 6 Norte 14 Norte 0 -- -- 100
2019-12-09 09:00:00 -1.8 3 Nordeste 7 Norte 0 -- -- 100
2019-12-09 08:00:00 -2.1 4 Norte 5 Norte 0 -- -- 100
2019-12-09 07:00:00 -2.2 0 Calma 5 Norte 0 -- -- 100
2019-12-09 06:00:00 -2.1 2 Nordeste 4 Norte 0 -- -- 100
2019-12-09 05:00:00 -1.7 4 Norte 6 Norte 0 -- -- 100
2019-12-09 04:00:00 -1.5 3 Nordeste 6 Norte 0 -- -- 100
2019-12-09 03:00:00 -1.4 3 Norte 8 Norte 0 -- -- 100
2019-12-09 02:00:00 -0.9 3 Norte 5 Norte 0 -- -- 100
2019-12-09 01:00:00 -0.5 2 Norte 4 Norte 0 -- -- 100
2019-12-09 00:00:00 -0.6 3 Norte 6 Norte 0 -- -- 100
2019-12-08 23:00:00 0.2 2 Norte 7 Noroeste 0 -- -- 100
2019-12-08 22:00:00 1.7 2 Norte 5 Norte 0.2 -- -- 100
2019-12-08 21:00:00 2.6 2 Norte 6 Este 0 -- -- 100
2019-12-08 20:00:00 3.4 0 Calma 5 Oeste 0 -- -- 99
2019-12-08 19:00:00 4.5 3 Sudoeste 6 Sudoeste 0 -- -- 99
2019-12-08 18:00:00 6.1 0 Calma 10 Norte 0 -- -- 97
2019-12-08 17:00:00 9.1 3 Noroeste 15 Noroeste 0 -- -- 89
2019-12-08 16:00:00 13.4 6 Norte 14 Noroeste 0 -- -- 77
2019-12-08 15:00:00 9.7 4 Sur 7 Sur 0.2 -- -- 99
2019-12-08 14:00:00 8.2 3 Oeste 8 Norte 0.2 -- -- 100
2019-12-08 13:00:00 7.8 0 Calma 6 Noroeste 0.8 -- -- 99
2019-12-08 12:00:00 7.4 0 Calma 4 Este 0.6 -- -- 99
2019-12-08 11:00:00 6.4 4 Sur 10 Este 1.6 -- -- 100
2019-12-08 10:00:00 5.9 3 Sur 6 Sudoeste 1.4 -- -- 100
2019-12-08 09:00:00 5.6 2 Noroeste 6 Noroeste 0.2 -- -- 100
2019-12-08 08:00:00 5.4 0 Calma 4 Sur 0 -- -- 99
2019-12-08 07:00:00 5.4 2 Norte 7 Oeste 0.2 -- -- 99
2019-12-08 06:00:00 5.3 2 Sur 6 Sur 0 -- -- 98
2019-12-08 05:00:00 5.2 0 Calma 3 Sur 0 -- -- 97
2019-12-08 04:00:00 5.2 0 Calma 4 Noroeste 0 -- -- 97
2019-12-08 03:00:00 5.1 3 Noroeste 4 Noroeste 0 -- -- 97
2019-12-08 02:00:00 4.8 0 Calma 4 Sur 0 -- -- 98
2019-12-08 01:00:00 4.6 2 Norte 6 Este 0 -- -- 98
2019-12-08 00:00:00 4.1 0 Calma 6 Noroeste 0 -- -- 98
2019-12-07 23:00:00 4.5 2 Nordeste 7 Norte 0 -- -- 96
2019-12-07 22:00:00 6.4 3 Norte 7 Nordeste 0 -- -- 92
2019-12-07 21:00:00 5.8 0 Calma 5 Sur 0 -- -- 95
2019-12-07 20:00:00 7 4 Sur 6 Sur 0 -- -- 91
2019-12-07 19:00:00 8.5 3 Norte 12 Sudoeste 0 -- -- 86
2019-12-07 18:00:00 10.6 14 Sudoeste 22 Sur 0 -- -- 77
2019-12-07 17:00:00 11.3 13 Sur 25 Sudoeste 0 -- -- 75
2019-12-07 16:00:00 13.1 15 Sudoeste 23 Sudoeste 0 -- -- 65
2019-12-07 15:00:00 14.8 3 Noroeste 10 Sur 0 -- -- 53
2019-12-07 14:00:00 11.7 3 Sudeste 6 Sur 0 -- -- 57
2019-12-07 13:00:00 9 3 Sur 7 Sur 0 -- -- 66
2019-12-07 12:00:00 5 2 Este 3 Sudoeste 0 -- -- 85
2019-12-07 11:00:00 2.9 0 Calma 4 Noroeste 0 -- -- 96
2019-12-07 10:00:00 0.8 0 Calma 5 Norte 0 -- -- 99
2019-12-07 09:00:00 0.2 3 Nordeste 8 Norte 0 -- -- 99
2019-12-07 08:00:00 0.4 3 Noroeste 5 Norte 0 -- -- 100
2019-12-07 07:00:00 0 0 Calma 6 Nordeste 0 -- -- 100
2019-12-07 06:00:00 -0.5 3 Noroeste 5 Noroeste 0 -- -- 100
2019-12-07 05:00:00 -1 3 Nordeste 9 Norte 0 -- -- 100
2019-12-07 04:00:00 -1 2 Noroeste 8 Norte 0 -- -- 100
2019-12-07 03:00:00 -1.1 0 Calma 6 Norte 0 -- -- 100
2019-12-07 02:00:00 -1 3 Norte 6 Norte 0 -- -- 100
2019-12-07 01:00:00 -0.5 0 Calma 8 Norte 0 -- -- 100
2019-12-07 00:00:00 -0.3 2 Noroeste 5 Nordeste 0 -- -- 99
2019-12-06 23:00:00 -0.1 2 Norte 6 Noroeste 0 -- -- 99
2019-12-06 22:00:00 -0.2 2 Norte 6 Norte 0 -- -- 99
2019-12-06 21:00:00 0.9 4 Norte 6 Norte 0 -- -- 98
2019-12-06 20:00:00 1.9 2 Nordeste 7 Norte 0 -- -- 97
2019-12-06 19:00:00 2.7 5 Norte 7 Norte 0 -- -- 94
2019-12-06 18:00:00 5.1 6 Norte 9 Norte 0 -- -- 87
2019-12-06 17:00:00 6.8 3 Noroeste 6 Norte 0 -- -- 82
2019-12-06 16:00:00 10.2 3 Sudoeste 7 Sur 0 -- -- 67
2019-12-06 15:00:00 9.8 2 Noroeste 5 Noroeste 0 -- -- 64
2019-12-06 14:00:00 7.2 2 Nordeste 6 Sur 0 -- -- 75
2019-12-06 13:00:00 6.1 2 Sur 5 Sur 0 -- -- 79
2019-12-06 12:00:00 5.2 3 Sudeste 5 Sudeste 0 -- -- 80
2019-12-06 11:00:00 2.3 4 Sudeste 6 Sudeste 0 -- -- 98
2019-12-06 10:00:00 0.3 3 Norte 8 Nordeste 0 -- -- 99
2019-12-06 09:00:00 0.1 4 Nordeste 7 Nordeste 0 -- -- 99
2019-12-06 08:00:00 0.2 3 Este 8 Norte 0 -- -- 99
2019-12-06 07:00:00 0.5 4 Este 8 Norte 0 -- -- 99
2019-12-06 06:00:00 0.7 3 Nordeste 9 Norte 0 -- -- 99
2019-12-06 05:00:00 1 3 Norte 7 Norte 0 -- -- 99
2019-12-06 04:00:00 0.8 6 Nordeste 8 Norte 0 -- -- 100
2019-12-06 03:00:00 0.4 3 Norte 8 Norte 0 -- -- 100
2019-12-06 02:00:00 0.2 3 Sudoeste 10 Norte 0 -- -- 100
2019-12-06 01:00:00 -0.9 0 Calma 5 Noroeste 0 -- -- 100
2019-12-06 00:00:00 -0.8 5 Norte 8 Noroeste 0 -- -- 100
2019-12-05 23:00:00 -0.7 2 Este 5 Norte 0 -- -- 99
2019-12-05 22:00:00 -0.2 0 Calma 5 Nordeste 0 -- -- 99
2019-12-05 21:00:00 0.1 0 Calma 4 Norte 0 -- -- 98
2019-12-05 20:00:00 1.3 3 Nordeste 6 Norte 0 -- -- 96
2019-12-05 19:00:00 2.9 4 Norte 8 Norte 0 -- -- 94
2019-12-05 18:00:00 4.4 3 Noroeste 21 Norte 0 -- -- 89
2019-12-05 17:00:00 6.6 12 Norte 21 Norte 0 -- -- 79
2019-12-05 16:00:00 10.6 11 Norte 21 Nordeste 0 -- -- 65
2019-12-05 15:00:00 12.7 10 Nordeste 24 Este 0 -- -- 56
2019-12-05 14:00:00 12.8 6 Norte 13 Norte 0 -- -- 58
2019-12-05 13:00:00 10.4 3 Oeste 12 Sur 0 -- -- 66
2019-12-05 12:00:00 6.2 6 Este 11 Sur 0 -- -- 85
2019-12-05 11:00:00 2.5 3 Norte 11 Nordeste 0 -- -- 99
2019-12-05 10:00:00 -0.8 0 Calma 6 Norte 0 -- -- 100
2019-12-05 09:00:00 -1.5 4 Nordeste 7 Este 0 -- -- 99
2019-12-05 08:00:00 -1.4 3 Norte 8 Nordeste 0 -- -- 99
2019-12-05 07:00:00 -1.4 4 Nordeste 14 Norte 0 -- -- 98
2019-12-05 06:00:00 -1.4 2 Norte 12 Sur 0 -- -- 98
2019-12-05 05:00:00 -1.5 3 Oeste 9 Norte 0 -- -- 98
2019-12-05 04:00:00 -1.2 3 Sur 9 Este 0 -- -- 98
2019-12-05 03:00:00 -1.7 3 Norte 7 Este 0 -- -- 98
2019-12-05 02:00:00 -1.7 3 Este 12 Norte 0 -- -- 98
2019-12-05 01:00:00 -1.6 5 Norte 8 Norte 0 -- -- 98
2019-12-05 00:00:00 -1.4 0 Calma 8 Nordeste 0 -- -- 97
2019-12-04 23:00:00 -1 0 Calma 10 Norte 0 -- -- 96
2019-12-04 22:00:00 -0.6 3 Norte 8 Norte 0 -- -- 96
2019-12-04 21:00:00 -0.1 3 Norte 11 Norte 0 -- -- 93
2019-12-04 20:00:00 0.8 2 Noroeste 11 Norte 0 -- -- 91
2019-12-04 19:00:00 2.4 5 Norte 9 Norte 0 -- -- 84
2019-12-04 18:00:00 4 5 Norte 10 Norte 0 -- -- 76
2019-12-04 17:00:00 5.4 2 Noroeste 12 Norte 0 -- -- 78
2019-12-04 16:00:00 9.7 4 Norte 7 Sudoeste 0 -- -- 60
2019-12-04 15:00:00 11.7 3 Sudoeste 6 Sur 0 -- -- 54
2019-12-04 14:00:00 10.6 2 Sudeste 7 Sur 0 -- -- 57
2019-12-04 13:00:00 6.8 0 Calma 5 Sur 0 -- -- 67
2019-12-04 12:00:00 3.1 2 Sur 8 Este 0 -- -- 80
2019-12-04 11:00:00 -0.1 0 Calma 6 Norte 0 -- -- 97
2019-12-04 10:00:00 -2.7 3 Norte 5 Norte 0 -- -- 97
2019-12-04 09:00:00 -2.9 0 Calma 7 Norte 0 -- -- 98
2019-12-04 08:00:00 -2.8 3 Sudeste 8 Norte -- -- -- 97
2019-12-04 07:00:00 -2.5 2 Noroeste 7 Norte 0 -- -- 96
2019-12-04 06:00:00 -2.3 3 Nordeste 7 Sudoeste 0 -- -- 96
2019-12-04 05:00:00 -2.1 4 Sur 12 Sudoeste 0 -- -- 98
2019-12-04 04:00:00 -1.9 6 Sur 11 Sur 0 -- -- 98
2019-12-04 03:00:00 -2.5 3 Sudoeste 9 Sur 0 -- -- 99
2019-12-04 02:00:00 -3.6 0 Calma 7 Oeste 0 -- -- 98
2019-12-04 01:00:00 -3.5 2 Nordeste 5 Nordeste 0 -- -- 97
2019-12-04 00:00:00 -3.2 3 Norte 6 Nordeste 0 -- -- 96
2019-12-03 23:00:00 -2.8 2 Norte 5 Este 0 -- -- 95
2019-12-03 22:00:00 -2.3 3 Norte 5 Norte 0 -- -- 95
2019-12-03 21:00:00 -2 3 Nordeste 9 Norte 0 -- -- 92
2019-12-03 20:00:00 -1.3 3 Noroeste 8 Norte 0 -- -- 94
2019-12-03 19:00:00 -0.6 5 Norte 6 Nordeste 0 -- -- 86
2019-12-03 18:00:00 1.1 0 Calma 3 Oeste 0 -- -- 84
2019-12-03 17:00:00 2.7 3 Norte 5 Norte 0 -- -- 66
2019-12-03 16:00:00 9.4 2 Noroeste 5 Sudoeste 0 -- -- 51
2019-12-03 15:00:00 10.5 3 Sudoeste 10 Sur 0 -- -- 44
2019-12-03 14:00:00 9.2 3 Sur 6 Sudoeste 0 -- -- 50
2019-12-03 13:00:00 6.8 2 Sudeste 5 Sur 0 -- -- 52
2019-12-03 12:00:00 3.3 3 Este 6 Sudeste 0 -- -- 67
2019-12-03 11:00:00 -0.5 2 Sudeste 9 Nordeste 0 -- -- 79
2019-12-03 10:00:00 -3.1 5 Norte 8 Norte 0 -- -- 88
2019-12-03 09:00:00 -3.2 3 Norte 9 Norte 0 -- -- 86
2019-12-03 08:00:00 -3.5 3 Noroeste 10 Nordeste 0 -- -- 90
2019-12-03 07:00:00 -2.4 5 Norte 11 Norte 0 -- -- 83
2019-12-03 06:00:00 -3.5 2 Nordeste 7 Norte 0 -- -- 93
2019-12-03 05:00:00 -3.1 4 Norte 8 Norte 0 -- -- 92
2019-12-03 04:00:00 -2.5 6 Norte 10 Norte 0 -- -- 89
2019-12-03 03:00:00 -2 6 Norte 14 Norte 0 -- -- 89
2019-12-03 02:00:00 -2.1 4 Norte 10 Norte 0 -- -- 93
2019-12-03 01:00:00 -1.5 5 Norte 9 Norte 0 -- -- 91
2019-12-03 00:00:00 -0.6 3 Noroeste 13 Norte 0 -- -- 85
2019-12-02 23:00:00 1.6 7 Norte 12 Norte 0 -- -- 71
2019-12-02 22:00:00 1.8 3 Norte 14 Norte 0 -- -- 74
2019-12-02 21:00:00 1 5 Norte 10 Nordeste 0 -- -- 83
2019-12-02 20:00:00 1.3 2 Noroeste 9 Norte 0 -- -- 87
2019-12-02 19:00:00 3.9 4 Norte 17 Noroeste 0 -- -- 69
2019-12-02 18:00:00 4.7 8 Norte 23 Norte 0 -- -- 70
2019-12-02 17:00:00 5.7 10 Norte 26 Norte 0 -- -- 68
2019-12-02 16:00:00 7.7 9 Norte 26 Este 0 -- -- 61
2019-12-02 15:00:00 8 11 Nordeste 36 Norte 0 -- -- 61
2019-12-02 14:00:00 7.3 18 Norte 34 Noroeste 0 -- -- 65
2019-12-02 13:00:00 6.7 15 Norte 30 Norte 0 -- -- 70
2019-12-02 12:00:00 6.7 11 Norte 32 Oeste 0 -- -- 71
2019-12-02 11:00:00 6.1 9 Noroeste 31 Norte -- -- -- 72
2019-12-02 10:00:00 5.9 16 Norte 37 Noroeste 0 -- -- 73
2019-12-02 09:00:00 5.4 14 Norte 30 Noroeste 0 -- -- 74
2019-12-02 08:00:00 3.3 3 Este 8 Este 0 -- -- 88
2019-12-02 07:00:00 4.1 5 Nordeste 16 Nordeste 0 -- -- 81
2019-12-02 06:00:00 4.1 5 Nordeste 14 Norte 0 -- -- 79
2019-12-02 05:00:00 3.6 8 Norte 14 Norte 0 -- -- 80
2019-12-02 04:00:00 3.6 11 Nordeste 19 Nordeste 0 -- -- 82
2019-12-02 03:00:00 3.6 9 Nordeste 22 Norte 0 -- -- 84
2019-12-02 02:00:00 3.7 11 Norte 19 Noroeste 0 -- -- 84
2019-12-02 01:00:00 3.8 8 Norte 23 Noroeste 0 -- -- 83
2019-12-02 00:00:00 3.4 5 Nordeste 15 Noroeste 0 -- -- 88
2019-12-01 23:00:00 4.1 8 Norte 23 Noroeste 0 -- -- 81
2019-12-01 22:00:00 4.1 14 Noroeste 35 Noroeste 0 -- -- 81
2019-12-01 21:00:00 4.5 17 Noroeste 32 Noroeste 0.2 -- -- 81
2019-12-01 20:00:00 4.5 14 Noroeste 31 Noroeste 0.2 -- -- 85
2019-12-01 19:00:00 4.7 13 Norte 23 Norte 0 -- -- 85
2019-12-01 18:00:00 5.6 8 Norte 20 Noroeste 0 -- -- 82
2019-12-01 17:00:00 6.2 7 Nordeste 20 Noroeste 0 -- -- 77
2019-12-01 16:00:00 6.7 11 Norte 23 Noroeste 0 -- -- 76
2019-12-01 15:00:00 6.9 14 Norte 26 Norte 0 -- -- 74
2019-12-01 14:00:00 7.6 9 Norte 26 Noroeste 0 -- -- 72
2019-12-01 13:00:00 7 13 Norte 24 Norte 0 -- -- 75
2019-12-01 12:00:00 7.1 9 Norte 21 Norte 0 -- -- 77
2019-12-01 11:00:00 7.5 3 Nordeste 9 Norte 0 -- -- 82
2019-12-01 10:00:00 5.1 4 Norte 14 Noroeste 0 -- -- 91
2019-12-01 09:00:00 4.9 4 Norte 12 Noroeste 0 -- -- 90
2019-12-01 08:00:00 5.1 5 Norte 13 Noroeste 0 -- -- 88
2019-12-01 07:00:00 4.6 4 Norte 14 Norte 0 -- -- 91
2019-12-01 06:00:00 4.8 6 Norte 16 Nordeste 0 -- -- 87
2019-12-01 05:00:00 4.6 5 Norte 13 Noroeste 0 -- -- 88
2019-12-01 04:00:00 4.2 3 Norte 10 Noroeste 0 -- -- 94
2019-12-01 03:00:00 4.5 3 Norte 9 Este 0 -- -- 94
2019-12-01 02:00:00 4.9 2 Norte 18 Oeste 0.2 -- -- 90
2019-12-01 01:00:00 5.4 9 Sudeste 24 Sur 0 -- -- 87
2019-12-01 00:00:00 5.3 5 Sur 12 Sur 0 -- -- 90
2019-11-30 23:00:00 5.3 9 Sur 20 Sur 0 -- -- 88
2019-11-30 22:00:00 4.8 6 Noroeste 24 Sur 0.4 -- -- 92
2019-11-30 21:00:00 5.4 10 Sudoeste 33 Sudoeste 0 -- -- 85
2019-11-30 20:00:00 5.7 12 Sudoeste 35 Sudoeste 0 -- -- 80
2019-11-30 19:00:00 6.5 10 Oeste 38 Sudoeste 0 -- -- 75
2019-11-30 18:00:00 6.7 20 Sur 28 Sur 0 -- -- 74
2019-11-30 17:00:00 7.8 14 Sur 38 Sur 0 -- -- 66
2019-11-30 16:00:00 9.2 19 Sur 51 Sur 0 -- -- 57
2019-11-30 15:00:00 9.5 23 Sur 49 Sur 0 -- -- 59
2019-11-30 14:00:00 8.7 22 Sudoeste 51 Sudoeste 0 -- -- 65
2019-11-30 13:00:00 8.2 5 Noroeste 26 Noroeste 0 -- -- 73
2019-11-30 12:00:00 7.3 11 Norte 39 Sur 0.2 -- -- 85
2019-11-30 11:00:00 8.5 8 Sudoeste 23 Noroeste 0.2 -- -- 83
2019-11-30 10:00:00 7.7 5 Norte 32 Sur 2 -- -- 91
2019-11-30 09:00:00 9.4 5 Este 49 Sur 2.8 -- -- 93
2019-11-30 08:00:00 10.7 11 Sudoeste 50 Sur 0 -- -- 86
2019-11-30 07:00:00 9.3 5 Norte 23 Norte 3.4 -- -- 99
2019-11-30 06:00:00 9.1 9 Norte 22 Nordeste 3 -- -- 100
2019-11-30 05:00:00 6.7 5 Norte 12 Norte 1.2 -- -- 100
2019-11-30 04:00:00 5.1 4 Norte 8 Sudoeste 1 -- -- 100
2019-11-30 03:00:00 4.8 2 Nordeste 6 Este 1 -- -- 99
2019-11-30 02:00:00 4.7 0 Calma 4 Sur -- -- -- 99
2019-11-30 01:00:00 4.6 0 Calma 4 Nordeste 0 -- -- 99
2019-11-30 00:00:00 4.5 0 Calma 9 Este 0 -- -- 99
2019-11-29 23:00:00 -- -- -- -- -- -- -- -- --
2019-11-29 22:00:00 3.6 3 Nordeste 5 Nordeste 0 -- -- 100
2019-11-29 21:00:00 3.7 0 Calma 5 Norte 0 -- -- 99
2019-11-29 20:00:00 3.5 0 Calma 5 Nordeste 0 -- -- 99
2019-11-29 19:00:00 4.1 2 Norte 6 Norte 0 -- -- 98
2019-11-29 18:00:00 4.8 0 Calma 6 Norte 0 -- -- 96
2019-11-29 17:00:00 5.8 3 Noroeste 9 Norte 0 -- -- 91
2019-11-29 16:00:00 11.5 2 Oeste 12 Sur 0 -- -- 72
2019-11-29 15:00:00 10 4 Sur 6 Sudoeste 0 -- -- 76
2019-11-29 14:00:00 8.9 3 Sur 5 Sudeste 0 -- -- 79
2019-11-29 13:00:00 6 3 Oeste 7 Norte 0 -- -- 92
2019-11-29 12:00:00 4.9 2 Noroeste 6 Este 0 -- -- 95
2019-11-29 11:00:00 4.3 3 Noroeste 6 Norte 0 -- -- 98
2019-11-29 10:00:00 3.9 5 Norte 8 Noroeste 0 -- -- 99
2019-11-29 09:00:00 3.7 4 Norte 8 Norte 0 -- -- 100
2019-11-29 08:00:00 3.8 2 Norte 5 Norte 0 -- -- 100
2019-11-29 07:00:00 3.6 2 Norte 8 Norte 0 -- -- 100
2019-11-29 06:00:00 3.5 5 Norte 8 Norte 0 -- -- 100
2019-11-29 05:00:00 4.4 2 Norte 8 Norte 0 -- -- 100
2019-11-29 04:00:00 4.6 3 Nordeste 5 Nordeste 0 -- -- 100
2019-11-29 03:00:00 4.5 0 Calma 5 Oeste 0 -- -- 100
2019-11-29 02:00:00 5.6 0 Calma 11 Sudoeste 0 -- -- 99
2019-11-29 01:00:00 7.3 5 Sudoeste 9 Norte 0 -- -- 98
2019-11-29 00:00:00 8.6 5 Norte 22 Sudoeste 0 -- -- 96
2019-11-28 23:00:00 9.7 14 Sudoeste 23 Sudoeste 0 -- -- 97
2019-11-28 22:00:00 7.7 3 Sudoeste 12 Sur 0 -- -- 100
2019-11-28 21:00:00 7.4 2 Noroeste 6 Sur 0.6 -- -- 100
2019-11-28 20:00:00 7.3 2 Noroeste 10 Norte 0.8 -- -- 99
2019-11-28 19:00:00 7.4 2 Nordeste 12 Nordeste 1.8 -- -- 99
2019-11-28 18:00:00 7.5 6 Norte 10 Norte 2.2 -- -- 98
2019-11-28 17:00:00 7.8 4 Norte 21 Sur 2.2 -- -- 97
2019-11-28 16:00:00 8.2 13 Sur 30 Sur 1.6 -- -- 92
2019-11-28 15:00:00 8.4 10 Sudoeste 46 Sur 1.2 -- -- 88
2019-11-28 14:00:00 10 23 Sur 46 Sudoeste 0 -- -- 78
2019-11-28 13:00:00 9.8 11 Sudoeste 41 Sur 1.4 -- -- 89
2019-11-28 12:00:00 10 5 Noroeste 31 Sur 1 -- -- 93
2019-11-28 11:00:00 10 6 Oeste 37 Sudeste 0.4 -- -- 90
2019-11-28 10:00:00 8.9 7 Noroeste 37 Sudoeste 0.2 -- -- 96
2019-11-28 09:00:00 10 19 Sudoeste 34 Sudoeste 0.6 -- -- 88
2019-11-28 08:00:00 7.1 8 Norte 16 Norte 0.4 -- -- 98
2019-11-28 07:00:00 6.6 6 Norte 15 Norte 0 -- -- 98
2019-11-28 06:00:00 7.6 7 Norte 24 Sur 0.2 -- -- 95
2019-11-28 05:00:00 9 13 Sudoeste 26 Sur 0 -- -- 91
2019-11-28 04:00:00 8.6 10 Sudoeste 23 Sur 0 -- -- 92
2019-11-28 03:00:00 7.1 4 Noroeste 19 Sur 0.2 -- -- 96
2019-11-28 02:00:00 7.1 5 Noroeste 35 Sur 0.2 -- -- 94
2019-11-28 01:00:00 7.6 13 Sudoeste 32 Sur 0.6 -- -- 94
2019-11-28 00:00:00 6.8 5 Norte 15 Sur 0.8 -- -- 99
2019-11-27 23:00:00 6.8 5 Noroeste 21 Sur 1.2 -- -- 97
2019-11-27 22:00:00 7 10 Sur 26 Sur 0 -- -- 97
2019-11-27 21:00:00 5.9 5 Norte 14 Norte 1.4 -- -- 98
2019-11-27 20:00:00 5.8 4 Nordeste 14 Norte 0.6 -- -- 97
2019-11-27 19:00:00 6.5 13 Sudoeste 35 Sudoeste 1.8 -- -- 94
2019-11-27 18:00:00 6 5 Norte 21 Sur 0.6 -- -- 94
2019-11-27 17:00:00 6.5 5 Norte 23 Sur 0.2 -- -- 92
2019-11-27 16:00:00 6.9 12 Sur 40 Sur 1.2 -- -- 88
2019-11-27 15:00:00 7.3 24 Sur 48 Sudoeste 1.6 -- -- 86
2019-11-27 14:00:00 8 9 Sudoeste 49 Sur 2 -- -- 86
2019-11-27 06:00:00 -- -- -- -- -- -- -- -- --
2019-11-27 05:00:00 -- -- -- -- -- -- -- -- --
2019-11-27 04:00:00 6.9 9 Sur 45 Sur 0.4 -- -- 85
2019-11-27 03:00:00 6.7 16 Sur 45 Sur 0.6 -- -- 88
2019-11-27 02:00:00 6.3 15 Sur 65 Sur 0.8 -- -- 90
2019-11-27 01:00:00 6.1 26 Sudoeste 54 Sur 0.8 -- -- 88
2019-11-27 00:00:00 6.2 19 Sudoeste 56 Sudoeste 0.8 -- -- 85
2019-11-26 23:00:00 6.4 24 Sur 56 Sudoeste 0.6 -- -- 85
2019-11-26 22:00:00 7.6 20 Sudoeste 46 Sur 0 -- -- 75
2019-11-26 21:00:00 7.7 13 Sudoeste 47 Sudoeste 0 -- -- 74
2019-11-26 20:00:00 8.3 23 Sudoeste 56 Sur 2.2 -- -- 78
2019-11-26 19:00:00 8.4 30 Sudoeste 119 Sudoeste 1.8 -- -- 84
2019-11-26 18:00:00 9.1 29 Sudoeste 72 Sur 3.8 -- -- 89
2019-11-26 17:00:00 9.7 29 Sudoeste 63 Sur 1 -- -- 83
2019-11-26 16:00:00 11.7 45 Sudoeste 68 Sur 0 -- -- 64
2019-11-26 15:00:00 12 36 Sudoeste 68 Sudoeste 0 -- -- 61
2019-11-26 14:00:00 12.6 42 Sudoeste 65 Sudoeste 0 -- -- 60
2019-11-26 13:00:00 11.6 36 Sudoeste 66 Sur 0 -- -- 64
2019-11-26 12:00:00 11.3 32 Sudoeste 63 Sudoeste 0 -- -- 74
2019-11-26 11:00:00 -- 28 Sur 59 Sur 0 -- -- --
2019-11-26 10:00:00 11.2 27 Sudoeste 56 Sur 0 -- -- 77
2019-11-26 09:00:00 11.5 21 Sudoeste 51 Sur 0.2 -- -- 78
2019-11-26 08:00:00 10.4 19 Sudoeste 38 Sur 0 -- -- 92
2019-11-26 07:00:00 10.5 14 Sudoeste 45 Sudoeste 0 -- -- 91
2019-11-26 06:00:00 10.4 16 Sudoeste 42 Sur 0.2 -- -- 92
2019-11-26 05:00:00 8 5 Noroeste 20 Nordeste 0.2 -- -- 100
2019-11-26 04:00:00 5.8 -- -- -- -- 0 -- -- 100
2019-11-26 03:00:00 4.9 3 Este 6 Norte 0 -- -- 99
2019-11-26 02:00:00 4.6 2 Nordeste 6 Norte 0 -- -- 97
2019-11-26 01:00:00 4.8 3 Sudoeste 9 Noroeste 0 -- -- 96
2019-11-26 00:00:00 4.4 6 Norte 11 Norte 0 -- -- 96
2019-11-25 23:00:00 4.4 2 Nordeste 9 Noroeste 0 -- -- 93
2019-11-25 22:00:00 4.8 4 Norte 12 Nordeste 0 -- -- 93
2019-11-25 21:00:00 5.6 8 Norte 14 Nordeste 0 -- -- 89
2019-11-25 20:00:00 7.7 6 Sudoeste 31 Sur 0 -- -- 88
2019-11-25 19:00:00 6.4 6 Norte 17 Norte 0 -- -- 88
2019-11-25 18:00:00 9 9 Sudoeste 30 Sur 0 -- -- 80
2019-11-25 17:00:00 10 21 Sur 40 Sudoeste 0 -- -- 76
2019-11-25 16:00:00 9.9 13 Sudoeste 33 Sudoeste 0 -- -- 76
2019-11-25 15:00:00 10.2 17 Sudoeste 33 Sudoeste 0 -- -- 73
2019-11-25 14:00:00 10.7 8 Sur 27 Sur 0 -- -- 77
2019-11-25 13:00:00 10.5 8 Sur 17 Sudoeste 0 -- -- 80
2019-11-25 12:00:00 9.7 8 Sur 29 Sur 0 -- -- 85
2019-11-25 11:00:00 8.5 3 Este 14 Sur 0 -- -- 90
2019-11-25 10:00:00 8 8 Sur 38 Sur 0 -- -- 90
2019-11-25 09:00:00 8.2 12 Sur 34 Sudoeste 0 -- -- 85
2019-11-25 08:00:00 7.2 8 Noroeste 22 Oeste 0 -- -- 91
2019-11-25 07:00:00 8.8 5 Oeste 14 Sur 0 -- -- 89
2019-11-25 06:00:00 8.9 6 Noroeste 25 Sur 0 -- -- 86
2019-11-25 05:00:00 9.1 8 Oeste 32 Noroeste 0 -- -- 84
2019-11-25 04:00:00 8.7 5 Noroeste 38 Sur 0 -- -- 90
2019-11-25 03:00:00 7.6 5 Oeste 15 Sudoeste 0 -- -- 96
2019-11-25 02:00:00 7.8 6 Sudoeste 22 Sudoeste 0 -- -- 100
2019-11-25 01:00:00 7 5 Oeste 16 Sudeste 0.4 -- -- 100
2019-11-25 00:00:00 4.6 5 Noroeste 17 Nordeste 0.4 -- -- 100
2019-11-24 23:00:00 4.7 3 Nordeste 7 Norte 0.6 -- -- 99
2019-11-24 22:00:00 4.9 3 Norte 9 Norte 0.6 -- -- 99
2019-11-24 21:00:00 5.1 3 Norte 19 Norte 0 -- -- 99
2019-11-24 20:00:00 4.8 8 Nordeste 19 Nordeste 0.6 -- -- 99
2019-11-24 19:00:00 4.7 9 Norte 17 Norte 0.2 -- -- 98
2019-11-24 18:00:00 5.1 5 Nordeste 13 Norte 0 -- -- 98
2019-11-24 17:00:00 5.7 3 Nordeste 10 Noroeste 0 -- -- 97
2019-11-24 16:00:00 5.9 5 Sudoeste 26 Sudoeste 0 -- -- 94
2019-11-24 15:00:00 6 14 Sudoeste 32 Sudoeste 0 -- -- 91
2019-11-24 14:00:00 6.3 14 Sur 26 Sur 0 -- -- 86
2019-11-24 13:00:00 6.2 6 Noroeste 26 Sur 0 -- -- 86
2019-11-24 12:00:00 5.1 4 Oeste 12 Oeste 0 -- -- 89
2019-11-24 11:00:00 4 4 Norte 14 Sur 0 -- -- 90
2019-11-24 10:00:00 2.8 4 Norte 8 Noroeste 0 -- -- 98
2019-11-24 09:00:00 1.6 4 Norte 6 Norte 0 -- -- 98
2019-11-24 08:00:00 1.3 4 Norte 7 Norte 0.2 -- -- 98
2019-11-24 07:00:00 1.7 4 Noroeste 15 Sudoeste 0.6 -- -- 95
2019-11-24 06:00:00 3.1 8 Sudoeste 14 Sur 0.8 -- -- 92
2019-11-24 05:00:00 3.2 5 Sudoeste 27 Sudoeste 0.8 -- -- 94
2019-11-24 04:00:00 3.7 11 Sudoeste 27 Sudoeste 0.8 -- -- 93
2019-11-24 03:00:00 3.7 7 Oeste 28 Sudoeste 1 -- -- 91
2019-11-24 02:00:00 3.5 14 Sudoeste 27 Oeste 1 -- -- 93
2019-11-24 01:00:00 3.7 14 Oeste 25 Sudoeste 1 -- -- 92
2019-11-24 00:00:00 3.4 4 Sudoeste 12 Oeste 1 -- -- 97
2019-11-23 23:00:00 3 4 Sudoeste 10 Sur 1.2 -- -- 98
2019-11-23 22:00:00 3.5 9 Sur 15 Sur 1 -- -- 97
2019-11-23 21:00:00 3.6 6 Sudoeste 25 Norte 1.2 -- -- 94
2019-11-23 20:00:00 4.1 6 Nordeste 17 Este 1.2 -- -- 89
2019-11-23 19:00:00 3.5 3 Noroeste 20 Norte 1.2 -- -- 94
2019-11-23 18:00:00 3.9 3 Noroeste 18 Este 1.2 -- -- 88
2019-11-23 17:00:00 4.8 6 Nordeste 15 Norte 1.2 -- -- 87
2019-11-23 16:00:00 4.4 3 Noroeste 14 Norte 1.4 -- -- 93
2019-11-23 15:00:00 5 5 Nordeste 12 Noroeste 1.4 -- -- 88
2019-11-23 14:00:00 -- -- -- -- -- -- -- -- --
2019-11-23 13:00:00 4.8 2 Norte 21 Norte 1.4 -- -- 90
2019-11-23 12:00:00 4.3 5 Sudoeste 31 Norte 1.4 -- -- 92
2019-11-23 11:00:00 3.8 8 Oeste 18 Sudeste 1.4 -- -- 90
2019-11-23 10:00:00 3.3 6 Oeste 15 Sudoeste 1.4 -- -- 90
2019-11-23 09:00:00 2.7 4 Norte 13 Oeste 1.4 -- -- 93
2019-11-23 08:00:00 3 4 Sudeste 16 Sur 1.4 -- -- 89
2019-11-23 07:00:00 3.1 5 Noroeste 24 Norte 1.4 -- -- 85
2019-11-23 06:00:00 3.1 10 Nordeste 25 Oeste 1.4 -- -- 85
2019-11-23 05:00:00 3.6 12 Norte 32 Norte 1.4 -- -- 82
2019-11-23 04:00:00 3.5 6 Nordeste 27 Norte 1.6 -- -- 90
2019-11-23 03:00:00 2.4 5 Norte 24 Oeste 1.4 -- -- 97
2019-11-23 02:00:00 1.6 12 Sudoeste 30 Sur 1.4 -- -- 98
2019-11-23 01:00:00 2 18 Sudoeste 35 Sudoeste 1.4 -- -- 95
2019-11-23 00:00:00 3.6 7 Sudoeste 41 Sur 1.4 -- -- 93
2019-11-22 23:00:00 4.6 8 Sudoeste 40 Sur 1.2 -- -- 96
2019-11-22 22:00:00 4.6 12 Sudoeste 29 Sur 1.2 -- -- 96
2019-11-22 21:00:00 4.9 6 Norte 32 Sur 1.2 -- -- 96
2019-11-22 20:00:00 4.8 7 Noroeste 32 Sudoeste 1 -- -- 96
2019-11-22 19:00:00 5 16 Sur 40 Sur 1 -- -- 91
2019-11-22 18:00:00 4.8 9 Oeste 37 Sur 1.2 -- -- 92
2019-11-22 17:00:00 6 22 Sudoeste 45 Sur 1 -- -- 85
2019-11-22 16:00:00 6.6 12 Sudoeste 48 Sur 1.2 -- -- 83
2019-11-22 15:00:00 6.5 18 Sudoeste 47 Sur 1.2 -- -- 87
2019-11-22 14:00:00 7.7 11 Sur 31 Sur 1 -- -- 90
2019-11-22 13:00:00 8.1 10 Noroeste 44 Sudoeste 1.2 -- -- 85
2019-11-22 12:00:00 6.6 6 Noroeste 21 Sur 1.2 -- -- 99
2019-11-22 11:00:00 4.2 4 Sudoeste 17 Sur 1 -- -- 99
2019-11-22 10:00:00 -- -- -- -- -- -- -- -- --
2019-11-22 09:00:00 3.3 4 Sur 13 Sudoeste 0.8 -- -- 100
2019-11-22 08:00:00 2.5 3 Norte 9 Sur 1 -- -- 99
2019-11-22 07:00:00 2.5 3 Sudoeste 9 Sur 0.8 -- -- 99
2019-11-22 06:00:00 2.7 5 Sur 12 Sudoeste 0.6 -- -- 99
2019-11-22 05:00:00 2.8 8 Sur 12 Sur 0 -- -- 98
2019-11-22 04:00:00 2.9 3 Oeste 9 Sudeste 0 -- -- 94
2019-11-22 03:00:00 3.4 4 Este 12 Noroeste 0 -- -- 90
2019-11-22 02:00:00 2.9 3 Este 10 Norte 0 -- -- 91
2019-11-22 01:00:00 2.6 4 Sudeste 9 Nordeste 0 -- -- 94
2019-11-22 00:00:00 2.5 4 Noroeste 11 Norte 0 -- -- 93
2019-11-21 23:00:00 3 4 Nordeste 12 Este 0 -- -- 91
2019-11-21 22:00:00 2.5 4 Norte 7 Noroeste 0 -- -- 96
2019-11-21 21:00:00 2.2 4 Norte 6 Noroeste 0 -- -- 98
2019-11-21 20:00:00 2.4 5 Sur 8 Sur 0 -- -- 97
2019-11-21 19:00:00 2.8 4 Noroeste 10 Sudoeste 0.4 -- -- 97
2019-11-21 18:00:00 3.1 3 Norte 16 Sur 0 -- -- 93
2019-11-21 17:00:00 4.2 2 Sur 17 Oeste 0 -- -- 87
2019-11-21 16:00:00 5.2 8 Sudoeste 32 Sudoeste 0 -- -- 79
2019-11-21 15:00:00 5.7 14 Sudoeste 30 Sudoeste 0 -- -- 74
2019-11-21 14:00:00 6.1 15 Sudoeste 34 Sur 0 -- -- 81
2019-11-21 13:00:00 5.9 13 Sudoeste 35 Sur 0 -- -- 78
2019-11-21 12:00:00 5 18 Sur 30 Sur 0 -- -- 80
2019-11-21 11:00:00 4.1 10 Sudoeste 23 Sur 0 -- -- 86
2019-11-21 10:00:00 2.5 5 Este 13 Sur 0 -- -- 96
2019-11-21 09:00:00 1.6 6 Norte 24 Sur 0 -- -- 97
2019-11-21 08:00:00 -- -- -- -- -- -- -- -- --
2019-11-21 07:00:00 -- -- -- -- -- -- -- -- --
2019-11-21 06:00:00 -- -- -- -- -- -- -- -- --
2019-11-21 05:00:00 -- -- -- -- -- -- -- -- --
2019-11-21 04:00:00 -- -- -- -- -- -- -- -- --
2019-11-21 03:00:00 -- -- -- -- -- -- -- -- --
2019-11-21 02:00:00 -- -- -- -- -- -- -- -- --
2019-11-21 01:00:00 -- -- -- -- -- -- -- -- --
2019-11-21 00:00:00 -- -- -- -- -- -- -- -- --
2019-11-20 23:00:00 -- -- -- -- -- -- -- -- --
2019-11-20 22:00:00 -- -- -- -- -- -- -- -- --
2019-11-20 21:00:00 -- -- -- -- -- -- -- -- --
2019-11-20 20:00:00 3.2 6 Norte 13 Este 0 -- -- 97
2019-11-20 19:00:00 2.9 3 Sudoeste 5 Sudoeste 0 -- -- 97
2019-11-20 18:00:00 3.7 3 Norte 6 Norte 0 -- -- 93
2019-11-20 17:00:00 4.8 3 Nordeste 19 Sur 0 -- -- 88
2019-11-20 16:00:00 5.7 8 Sur 19 Sudoeste 0 -- -- 84
2019-11-20 15:00:00 5.5 4 Sudoeste 12 Sur 0 -- -- 94
2019-11-20 14:00:00 4.2 4 Sur 8 Sur 0.2 -- -- 96
2019-11-20 13:00:00 4.3 4 Sur 8 Sur 0.2 -- -- 97
2019-11-20 12:00:00 4.2 2 Sudeste 5 Sudoeste 0 -- -- 97
2019-11-20 11:00:00 3.8 0 Calma 4 Sur 0 -- -- 98
2019-11-20 10:00:00 2.3 4 Norte 5 Norte 0 -- -- 99
2019-11-20 09:00:00 1.6 0 Calma 5 Norte 0 -- -- 100
2019-11-20 08:00:00 1.4 0 Calma 4 Norte 0 -- -- 100
2019-11-20 07:00:00 1.3 3 Norte 5 Norte 0 -- -- 100
2019-11-20 06:00:00 1.3 2 Norte 5 Norte 0.2 -- -- 100
2019-11-20 05:00:00 1.3 -- -- -- -- -- -- -- --
2019-11-20 04:00:00 1.4 0 Calma 4 Norte 0 -- -- 100
2019-11-20 03:00:00 1.4 2 Nordeste 6 Norte 0 -- -- 99
2019-11-20 02:00:00 1.6 3 Sur 4 Sudeste 0 -- -- 99
2019-11-20 01:00:00 1.4 0 Calma 4 Norte 0 -- -- 98
2019-11-20 00:00:00 1.3 2 Norte 4 Norte 0 -- -- 98
2019-11-19 23:00:00 1.4 3 Nordeste 9 Norte 0 -- -- 97
2019-11-19 22:00:00 1.7 3 Norte 5 Norte 0 -- -- 93
2019-11-19 21:00:00 2.1 0 Calma 6 Nordeste 0 -- -- 89
2019-11-19 20:00:00 2.9 4 Norte 10 Norte 0 -- -- 82
2019-11-19 19:00:00 2.9 4 Nordeste 10 Noroeste 0 -- -- 82
2019-11-19 18:00:00 3.3 4 Norte 11 Norte -- -- -- 77
2019-11-19 17:00:00 4.1 2 Norte 5 Noroeste 0 -- -- 71
2019-11-19 16:00:00 5.3 0 Calma 6 Noroeste 0 -- -- 67
2019-11-19 15:00:00 6.5 0 Calma 5 Norte 0 -- -- 59
2019-11-19 14:00:00 7.3 0 Calma 5 Este 0 -- -- 55
2019-11-19 13:00:00 4.9 4 Sudeste 8 Este 0 -- -- 64
2019-11-19 12:00:00 2.3 2 Norte 7 Este 0 -- -- 74
2019-11-19 11:00:00 0.1 2 Nordeste 6 Nordeste 0 -- -- 83
2019-11-19 10:00:00 -1.9 4 Norte 8 Este 0 -- -- 90
2019-11-19 09:00:00 -2.6 4 Nordeste 12 Nordeste 0 -- -- 91
2019-11-19 08:00:00 -2.7 3 Norte 12 Norte 0 -- -- 93
2019-11-19 07:00:00 -3 8 Norte 12 Norte 0 -- -- 92
2019-11-19 06:00:00 -2.2 4 Norte 9 Norte 0 -- -- 90
2019-11-19 05:00:00 -1.6 5 Norte 10 Norte 0 -- -- 91
2019-11-19 04:00:00 -0.9 5 Norte 9 Norte 0 -- -- 92
2019-11-19 03:00:00 -0.4 5 Norte 8 Norte 0 -- -- 94
2019-11-19 02:00:00 -0.1 5 Norte 8 Nordeste 0 -- -- 99
2019-11-19 01:00:00 -0.4 4 Norte 6 Nordeste 0 -- -- 100
2019-11-19 00:00:00 -0.5 0 Calma 5 Este 0 -- -- 100
2019-11-18 23:00:00 -0.3 3 Nordeste 10 Norte 0 -- -- 99
2019-11-18 22:00:00 0.1 3 Norte 8 Nordeste 0 -- -- 99
2019-11-18 21:00:00 1 5 Norte 8 Sudoeste 0 -- -- 98
2019-11-18 20:00:00 1.7 0 Calma 5 Norte 0 -- -- 97
2019-11-18 19:00:00 2.2 2 Norte 5 Norte 0 -- -- 95
2019-11-18 18:00:00 3.4 0 Calma 8 Norte 0 -- -- 90
2019-11-18 17:00:00 5 4 Sudoeste 6 Sur 0 -- -- 84
2019-11-18 16:00:00 5 4 Norte 16 Norte 0 -- -- 80
2019-11-18 15:00:00 5.5 10 Norte 21 Norte 0 -- -- 74
2019-11-18 14:00:00 9.9 3 Sudeste 12 Sur 0 -- -- 62
2019-11-18 13:00:00 6.6 9 Sur 17 Sur 0 -- -- 77
2019-11-18 12:00:00 4.6 9 Sur 19 Sur 0 -- -- 86
2019-11-18 11:00:00 3.9 6 Sur 12 Sur 0 -- -- 90
2019-11-18 10:00:00 3.3 6 Nordeste 18 Noroeste 0 -- -- 90
2019-11-18 09:00:00 2.3 0 Calma 9 Sur 0 -- -- 97
2019-11-18 08:00:00 2.1 4 Sudoeste 13 Sur 0 -- -- 98
2019-11-18 07:00:00 1.8 3 Sudoeste 9 Sur 0 -- -- 98
2019-11-18 06:00:00 1.6 2 Sudeste 8 Sur 0 -- -- 97
2019-11-18 05:00:00 2 3 Sur 15 Norte 0.4 -- -- 95
2019-11-18 04:00:00 2.5 7 Norte 19 Noroeste 0.2 -- -- 91
2019-11-18 03:00:00 2.7 8 Norte 28 Noroeste 0.4 -- -- 89
2019-11-18 02:00:00 3.2 10 Norte 24 Noroeste 0.4 -- -- 87
2019-11-18 01:00:00 3.2 9 Norte 26 Noroeste 0 -- -- 85
2019-11-18 00:00:00 2.8 8 Norte 29 Noroeste 0 -- -- 88
2019-11-17 23:00:00 2.6 18 Noroeste 31 Noroeste 0.4 -- -- 88
2019-11-17 22:00:00 1.6 5 Nordeste 10 Este 1 -- -- 99
2019-11-17 21:00:00 1.8 4 Norte 7 Norte 1.2 -- -- 97
2019-11-17 20:00:00 2.4 5 Nordeste 19 Sudoeste 1 -- -- 94
2019-11-17 19:00:00 2.7 4 Sudoeste 16 Sur 0.2 -- -- 95
2019-11-17 18:00:00 2.7 4 Norte 13 Sudoeste 0 -- -- 93
2019-11-17 17:00:00 4.7 8 Oeste 17 Oeste 0 -- -- 81
2019-11-17 16:00:00 4.4 10 Sudoeste 18 Sudoeste 0.2 -- -- 87
2019-11-17 15:00:00 6.2 6 Sudoeste 21 Sur 1.2 -- -- 84
2019-11-17 14:00:00 5.8 4 Norte 21 Sudoeste 1 -- -- 86
2019-11-17 13:00:00 5.7 13 Sudoeste 18 Sudoeste 0.4 -- -- 91
2019-11-17 12:00:00 5.2 5 Sudoeste 10 Sur 1 -- -- 97
2019-11-17 11:00:00 3.6 4 Norte 7 Norte 0.4 -- -- 99
2019-11-17 10:00:00 2.2 2 Nordeste 8 Norte 0.4 -- -- 100
2019-11-17 09:00:00 1.5 3 Nordeste 7 Norte 1.4 -- -- 100
2019-11-17 08:00:00 1.1 4 Norte 7 Norte 0.6 -- -- 100
2019-11-17 07:00:00 1.1 4 Norte 8 Norte 1.4 -- -- 100
2019-11-17 06:00:00 1.1 0 Calma 5 Norte 0.4 -- -- 100
2019-11-17 05:00:00 1 3 Nordeste 6 Norte 0 -- -- 100
2019-11-17 04:00:00 1.1 4 Nordeste 5 Nordeste 0 -- -- 100
2019-11-17 03:00:00 1.1 2 Norte 6 Norte 0 -- -- 99
2019-11-17 02:00:00 1 3 Noroeste 8 Norte 0 -- -- 99
2019-11-17 01:00:00 1.2 3 Norte 8 Norte 0 -- -- 99
2019-11-17 00:00:00 1.2 2 Norte 9 Norte 0 -- -- 98
2019-11-16 23:00:00 1.2 4 Nordeste 8 Norte 0 -- -- 98
2019-11-16 22:00:00 1.3 4 Noroeste 15 Sudoeste 0 -- -- 95
2019-11-16 21:00:00 1.2 4 Noroeste 19 Sudoeste 0 -- -- 96
2019-11-16 20:00:00 1.1 3 Norte 6 Norte 0 -- -- 95
2019-11-16 19:00:00 1.5 5 Noroeste 24 Sudoeste 0.2 -- -- 90
2019-11-16 18:00:00 1.9 4 Noroeste 14 Norte 0 -- -- 86
2019-11-16 17:00:00 3 3 Noroeste 17 Sudoeste 0 -- -- 81
2019-11-16 16:00:00 5 5 Oeste 21 Sudoeste 0.2 -- -- 65
2019-11-16 15:00:00 5.5 6 Nordeste 18 Sur 1.8 -- -- 68
2019-11-16 14:00:00 4.4 7 Sudoeste 14 Sudoeste 4 -- -- 80
2019-11-16 13:00:00 4.2 4 Noroeste 24 Sudoeste 4.4 -- -- 79
2019-11-16 12:00:00 3.5 4 Oeste 12 Oeste 2.8 -- -- 84
2019-11-16 11:00:00 2.2 7 Sudoeste 13 Sur 0.8 -- -- 92
2019-11-16 10:00:00 1.7 6 Sur 14 Sur 0.6 -- -- 95
2019-11-16 09:00:00 1.1 5 Sudoeste 10 Sudoeste 0.2 -- -- 98
2019-11-16 08:00:00 0.5 2 Oeste 8 Sur 0 -- -- 97
2019-11-16 07:00:00 0.7 0 Calma 8 Sudoeste 0 -- -- 97
2019-11-16 06:00:00 0.4 0 Calma 4 Sur 0 -- -- 97
2019-11-16 05:00:00 0.8 3 Oeste 5 Oeste 0.2 -- -- 94
2019-11-16 04:00:00 0.9 3 Norte 15 Norte 0.4 -- -- 88
2019-11-16 03:00:00 1.6 5 Norte 18 Norte 0 -- -- 93
2019-11-16 02:00:00 0.2 0 Calma 5 Este 0 -- -- 100
2019-11-16 01:00:00 0.2 3 Nordeste 6 Sur 0.2 -- -- 100
2019-11-16 00:00:00 0.3 4 Sudoeste 5 Sudoeste 0.2 -- -- 100